Time;durP1;ratioP1;P1;durP2;ratioP2;P2;SDS_P1;SDS_P2;PMS_P1;PMS_P2;Temp;Humidity;BMP_temperature;BMP_pressure;BME280_temperature;BME280_humidity;BME280_pressure;Samples;Min_cycle;Max_cycle;Signal;HPM_P1;HPM_P2
2023/12/31 00:00:28;;;;;;;56.50;26.48;;;;;;;6.80;68.78;100081.44;3131770;28;20102;-66
2023/12/31 00:01:59;;;;;;;54.15;27.25;;;;;;;6.77;68.95;100084.09;3131582;28;20045;-66
2023/12/31 00:03:30;;;;;;;60.95;27.55;;;;;;;6.74;69.04;100081.59;3131821;28;20057;-66
2023/12/31 00:05:01;;;;;;;62.97;28.38;;;;;;;6.70;69.09;100083.41;3131502;28;20041;-66
2023/12/31 00:06:33;;;;;;;64.75;29.00;;;;;;;6.42;69.19;100044.44;3131405;28;20367;-66
2023/12/31 00:08:06;;;;;;;58.75;27.40;;;;;;;6.71;69.28;100089.44;3131888;28;20048;-66
2023/12/31 00:09:39;;;;;;;65.40;29.95;;;;;;;6.70;69.18;100095.50;3131631;28;20135;-66
2023/12/31 00:11:10;;;;;;;56.55;28.02;;;;;;;6.70;69.09;100088.59;3131816;28;20057;-66
2023/12/31 00:12:42;;;;;;;64.38;28.50;;;;;;;6.72;69.29;100088.56;3131632;28;20442;-66
2023/12/31 00:14:13;;;;;;;63.60;29.45;;;;;;;6.69;69.03;100089.47;3131630;28;20159;-66
2023/12/31 00:15:44;;;;;;;63.50;29.20;;;;;;;6.67;69.21;100082.63;3131901;28;20383;-66
2023/12/31 00:17:15;;;;;;;55.97;27.88;;;;;;;6.66;69.17;100086.13;3131361;28;20079;-67
2023/12/31 00:18:47;;;;;;;63.72;28.63;;;;;;;6.64;69.43;100087.91;3131230;28;20048;-67
2023/12/31 00:20:18;;;;;;;69.60;31.83;;;;;;;6.63;69.54;100086.22;3131673;28;20449;-67
2023/12/31 00:21:49;;;;;;;66.45;30.63;;;;;;;6.64;69.57;100088.75;3133088;28;20055;-67
2023/12/31 00:23:21;;;;;;;65.22;31.15;;;;;;;6.66;69.23;100086.13;3133820;28;20068;-67
2023/12/31 00:24:54;;;;;;;60.00;29.35;;;;;;;6.65;69.36;100092.16;3134087;28;20040;-67
2023/12/31 00:26:25;;;;;;;67.07;30.98;;;;;;;6.60;69.43;100097.47;3133855;28;20053;-67
2023/12/31 00:27:56;;;;;;;65.70;31.20;;;;;;;6.57;69.57;100089.78;3133506;28;20064;-67
2023/12/31 00:29:28;;;;;;;62.42;30.27;;;;;;;6.55;69.81;100095.00;3133827;28;20068;-67
2023/12/31 00:31:00;;;;;;;65.40;29.60;;;;;;;6.50;70.01;100094.25;3133904;28;20115;-67
2023/12/31 00:32:31;;;;;;;63.55;30.23;;;;;;;6.44;70.14;100093.53;3133570;28;20048;-66
2023/12/31 00:34:03;;;;;;;64.13;29.60;;;;;;;6.38;70.42;100094.53;3133568;28;20054;-67
2023/12/31 00:35:33;;;;;;;58.15;29.00;;;;;;;6.33;70.63;100099.81;3137657;28;20466;-67
2023/12/31 00:37:05;;;;;;;63.55;30.45;;;;;;;6.28;70.91;100095.63;3133922;28;20052;-67
2023/12/31 00:38:38;;;;;;;63.15;30.90;;;;;;;6.25;71.13;100093.13;3133658;28;20102;-67
2023/12/31 00:40:11;;;;;;;70.10;32.35;;;;;;;6.21;71.04;100094.94;3133648;28;20080;-66
2023/12/31 00:41:41;;;;;;;59.85;29.80;;;;;;;6.22;71.19;100095.78;3133530;28;20056;-66
2023/12/31 00:43:13;;;;;;;65.95;31.70;;;;;;;6.18;71.19;100089.81;3133544;28;20049;-66
2023/12/31 00:44:45;;;;;;;73.80;32.35;;;;;;;6.23;71.32;100092.31;3133649;28;20052;-66
2023/12/31 00:46:16;;;;;;;69.53;30.42;;;;;;;6.26;71.24;100095.66;3133495;28;20045;-66
2023/12/31 00:47:48;;;;;;;71.25;31.85;;;;;;;6.29;71.22;100092.16;3133701;28;20064;-66
2023/12/31 00:49:18;;;;;;;72.38;31.27;;;;;;;6.34;71.03;100093.75;3133632;28;20049;-66
2023/12/31 00:50:50;;;;;;;60.75;31.15;;;;;;;6.38;70.98;100099.69;3133324;28;20049;-66
2023/12/31 00:52:22;;;;;;;72.32;31.38;;;;;;;6.38;70.89;100097.97;3133686;28;20166;-66
2023/12/31 00:53:54;;;;;;;69.82;31.27;;;;;;;6.36;70.82;100097.16;3133621;28;20056;-66
2023/12/31 00:55:26;;;;;;;68.93;32.50;;;;;;;6.32;70.97;100092.94;3133340;28;20457;-66
2023/12/31 00:56:57;;;;;;;67.93;30.00;;;;;;;6.28;71.10;100088.72;3133644;28;20060;-66
2023/12/31 00:58:29;;;;;;;63.03;30.60;;;;;;;6.21;71.16;100086.31;3133414;28;20057;-66
2023/12/31 01:00:00;;;;;;;60.17;29.52;;;;;;;6.20;71.43;100087.19;3133393;28;20767;-67
2023/12/31 01:01:32;;;;;;;60.13;30.50;;;;;;;6.18;71.44;100091.53;3133340;28;20049;-66
2023/12/31 01:03:03;;;;;;;61.45;29.90;;;;;;;6.15;71.56;100092.47;3133360;28;20040;-66
2023/12/31 01:04:36;;;;;;;62.88;29.25;;;;;;;6.14;71.55;100083.00;3133293;28;20207;-66
2023/12/31 01:06:07;;;;;;;66.28;27.88;;;;;;;6.15;71.60;100087.28;3133318;28;20045;-66
2023/12/31 01:07:39;;;;;;;63.35;29.33;;;;;;;6.15;71.53;100083.00;3133460;28;20095;-66
2023/12/31 01:09:13;;;;;;;60.92;28.75;;;;;;;6.17;71.46;100087.28;3121149;28;20061;-66
2023/12/31 01:10:44;;;;;;;58.22;27.30;;;;;;;6.15;71.46;100090.75;3133246;28;20103;-66
2023/12/31 01:12:16;;;;;;;55.30;27.50;;;;;;;6.12;71.53;100082.19;3133452;28;20091;-66
2023/12/31 01:13:47;;;;;;;62.33;27.98;;;;;;;5.65;71.57;100029.78;3132938;28;20214;-66
2023/12/31 01:15:19;;;;;;;58.15;27.05;;;;;;;6.05;71.54;100086.66;3133330;28;20056;-66
2023/12/31 01:16:49;;;;;;;62.92;28.08;;;;;;;6.02;71.51;100081.56;3133346;28;20572;-66
2023/12/31 01:18:21;;;;;;;58.63;26.20;;;;;;;5.98;71.63;100079.09;3133090;28;20053;-66
2023/12/31 01:19:53;;;;;;;55.92;26.52;;;;;;;6.02;71.52;100080.69;3133323;28;20060;-66
2023/12/31 01:21:25;;;;;;;54.90;27.30;;;;;;;6.04;71.58;100082.38;3133069;28;20052;-68
2023/12/31 01:22:55;;;;;;;55.97;26.80;;;;;;;6.05;71.46;100091.81;3133382;28;20044;-66
2023/12/31 01:24:29;;;;;;;56.78;25.90;;;;;;;6.07;71.32;100084.03;3133234;28;20080;-66
2023/12/31 01:26:00;;;;;;;;;;;;;;;5.88;71.44;100079.22;3133425;28;20049;-66
2023/12/31 01:27:31;;;;;;;53.15;25.98;;;;;;;5.87;71.72;100076.69;3133210;28;19920;-66
2023/12/31 01:29:03;;;;;;;56.13;26.73;;;;;;;5.86;71.76;100075.84;3133088;28;20072;-67
2023/12/31 01:30:35;;;;;;;54.47;25.63;;;;;;;5.86;71.70;100075.00;3133230;28;20049;-66
2023/12/31 01:32:06;;;;;;;55.97;25.15;;;;;;;5.85;71.78;100075.84;3133119;28;20052;-66
2023/12/31 01:33:38;;;;;;;54.90;27.30;;;;;;;5.84;71.96;100069.00;3132532;28;20053;-66
2023/12/31 01:35:09;;;;;;;58.15;27.70;;;;;;;5.86;71.87;100072.41;3136791;28;20052;-68
2023/12/31 01:36:41;;;;;;;55.40;25.55;;;;;;;5.87;71.79;100074.94;3133112;28;20537;-68
2023/12/31 01:38:11;;;;;;;59.38;26.60;;;;;;;5.89;71.71;100075.78;3133332;28;20056;-67
2023/12/31 01:39:44;;;;;;;51.00;26.58;;;;;;;5.93;71.74;100079.16;3133017;28;20057;-66
2023/12/31 01:41:15;;;;;;;53.72;26.10;;;;;;;5.93;71.75;100072.25;3131220;28;20514;-66
2023/12/31 01:42:47;;;;;;;52.08;26.88;;;;;;;5.98;71.65;100079.94;3131996;28;20049;-66
2023/12/31 01:44:18;;;;;;;57.95;28.25;;;;;;;5.96;71.52;100070.50;3132613;28;20068;-66
2023/12/31 01:45:50;;;;;;;57.58;26.92;;;;;;;5.98;71.36;100071.31;3133037;28;20049;-66
2023/12/31 01:47:21;;;;;;;55.35;27.05;;;;;;;6.02;71.45;100073.78;3132822;28;20053;-66
2023/12/31 01:48:54;;;;;;;58.38;25.73;;;;;;;5.98;71.46;100074.75;3132911;28;20045;-66
2023/12/31 01:50:26;;;;;;;56.95;27.13;;;;;;;6.01;71.53;100081.59;3132820;28;20064;-66
2023/12/31 01:51:57;;;;;;;61.40;28.48;;;;;;;6.02;71.69;100083.28;3132920;28;20067;-66
2023/12/31 01:53:30;;;;;;;58.60;25.77;;;;;;;6.01;71.57;100079.84;3132958;28;20049;-66
2023/12/31 01:55:05;;;;;;;54.63;24.95;;;;;;;6.00;71.53;100072.97;3132679;28;20059;-66
2023/12/31 01:56:38;;;;;;;55.28;25.00;;;;;;;5.92;71.53;100067.94;3132749;28;20049;-67
2023/12/31 01:58:10;;;;;;;48.20;22.92;;;;;;;5.97;71.61;100069.59;3132679;28;20449;-66
2023/12/31 01:59:41;;;;;;;46.33;23.17;;;;;;;5.97;71.59;100075.63;3132723;28;20143;-66
2023/12/31 02:01:14;;;;;;;46.78;22.30;;;;;;;5.98;71.53;100076.50;3132803;28;20071;-66
2023/12/31 02:02:47;;;;;;;39.42;19.55;;;;;;;5.97;71.54;100075.63;3133061;28;20525;-67
2023/12/31 02:04:21;;;;;;;40.63;18.85;;;;;;;5.98;71.57;100077.34;3132858;28;20049;-66
2023/12/31 02:05:52;;;;;;;36.47;17.65;;;;;;;5.98;71.67;100073.91;3132454;28;20056;-66
2023/12/31 02:07:24;;;;;;;41.17;19.83;;;;;;;5.33;71.37;99966.75;3132943;28;20045;-66
2023/12/31 02:08:54;;;;;;;38.70;17.92;;;;;;;6.01;71.28;100079.00;3132434;28;20041;-66
2023/12/31 02:10:28;;;;;;;34.38;18.70;;;;;;;6.02;71.40;100086.72;3132588;28;20053;-66
2023/12/31 02:11:58;;;;;;;;;;;;;;;5.88;71.59;100083.53;3133199;28;20111;-66
2023/12/31 02:13:30;;;;;;;32.95;16.52;;;;;;;5.91;71.51;100083.47;3132650;28;20394;-67
2023/12/31 02:15:01;;;;;;;30.17;14.82;;;;;;;5.95;71.60;100087.75;3132633;28;20048;-67
2023/12/31 02:16:33;;;;;;;30.58;15.23;;;;;;;5.98;71.42;100079.09;3132670;28;20493;-67
2023/12/31 02:18:04;;;;;;;33.58;15.75;;;;;;;6.00;71.35;100083.31;3132641;28;20056;-67
2023/12/31 02:19:36;;;;;;;37.55;16.67;;;;;;;5.97;71.33;100082.53;3132610;28;20159;-67
2023/12/31 02:21:07;;;;;;;35.63;16.17;;;;;;;5.93;71.25;100076.59;3132667;28;20060;-67
2023/12/31 02:22:40;;;;;;;30.27;15.52;;;;;;;5.92;71.34;100080.88;3132609;28;20044;-66
2023/12/31 02:24:13;;;;;;;36.67;16.45;;;;;;;5.91;71.55;100076.56;3132492;28;20057;-67
2023/12/31 02:25:58;;;;;;;38.50;17.02;;;;;;;5.89;71.41;100074.94;3132763;28;20045;-67
2023/12/31 02:27:29;;;;;;;37.50;19.23;;;;;;;5.81;71.69;100084.56;3132451;28;20132;-67
2023/12/31 02:29:00;;;;;;;44.20;19.75;;;;;;;5.77;71.76;100081.22;3132445;28;20056;-67
2023/12/31 02:30:31;;;;;;;41.38;20.08;;;;;;;5.75;71.83;100082.13;3132553;28;20138;-68
2023/12/31 02:32:03;;;;;;;42.95;18.38;;;;;;;5.72;71.85;100079.59;3132378;28;20134;-67
2023/12/31 02:33:34;;;;;;;37.05;19.13;;;;;;;5.70;71.96;100087.38;3120373;28;20045;-67
2023/12/31 02:35:07;;;;;;;40.30;18.75;;;;;;;5.65;72.17;100077.16;3135048;28;20389;-68
2023/12/31 02:36:37;;;;;;;36.97;17.83;;;;;;;5.69;72.11;100088.25;3133354;28;20045;-68
2023/12/31 02:38:09;;;;;;;36.67;18.58;;;;;;;5.72;72.17;100085.63;3132528;28;20414;-68
2023/12/31 02:39:40;;;;;;;42.40;19.08;;;;;;;5.75;72.02;100085.56;3132589;28;20069;-67
2023/12/31 02:41:13;;;;;;;43.00;20.98;;;;;;;5.76;72.08;100088.97;3132124;28;20049;-67
2023/12/31 02:42:44;;;;;;;47.33;21.27;;;;;;;5.70;72.13;100090.78;3132289;28;20455;-67
2023/12/31 02:44:15;;;;;;;44.95;21.27;;;;;;;5.72;72.01;100084.75;3132168;28;20052;-67
2023/12/31 02:45:46;;;;;;;40.53;19.80;;;;;;;5.70;72.24;100082.19;3132079;28;20066;-67
2023/12/31 02:47:18;;;;;;;45.35;21.30;;;;;;;5.66;72.24;100075.41;3132261;28;20056;-67
2023/12/31 02:48:49;;;;;;;42.53;20.85;;;;;;;5.68;72.47;100082.25;3132197;28;20048;-67
2023/12/31 02:50:20;;;;;;;43.75;21.35;;;;;;;5.66;72.40;100091.75;3132416;28;20063;-67
2023/12/31 02:51:51;;;;;;;42.17;20.88;;;;;;;5.67;72.45;100084.84;3132180;28;20506;-67
2023/12/31 02:53:23;;;;;;;45.03;20.95;;;;;;;5.72;72.41;100089.94;3132330;28;20064;-68
2023/12/31 02:54:53;;;;;;;49.63;21.55;;;;;;;5.75;72.44;100082.13;3132343;28;20053;-68
2023/12/31 02:56:27;;;;;;;42.83;21.15;;;;;;;5.80;72.29;100088.06;3132727;28;20048;-67
2023/12/31 02:57:58;;;;;;;46.22;23.27;;;;;;;5.62;72.25;100061.72;3132153;28;20049;-66
2023/12/31 02:59:30;;;;;;;47.58;21.83;;;;;;;5.84;72.16;100090.53;3132286;28;20045;-67
2023/12/31 03:01:01;;;;;;;42.80;21.08;;;;;;;5.86;72.11;100086.19;3132197;28;20053;-66
2023/12/31 03:02:32;;;;;;;46.63;20.83;;;;;;;5.88;72.01;100084.38;3132199;28;20450;-66
2023/12/31 03:04:04;;;;;;;45.70;21.90;;;;;;;5.92;71.90;100077.44;3132050;28;20449;-67
2023/12/31 03:05:35;;;;;;;40.03;20.40;;;;;;;5.93;71.71;100082.59;3131605;28;20711;-67
2023/12/31 03:07:06;;;;;;;42.47;19.80;;;;;;;5.96;71.86;100075.66;3132110;28;20426;-66
2023/12/31 03:08:38;;;;;;;67.43;27.92;;;;;;;5.98;71.85;100084.25;3132276;28;20057;-67
2023/12/31 03:10:09;;;;;;;78.40;32.38;;;;;;;5.99;71.67;100073.88;3132179;28;20049;-67
2023/12/31 03:11:42;;;;;;;55.53;25.23;;;;;;;5.99;71.74;100076.44;3132062;28;20445;-67
2023/12/31 03:13:14;;;;;;;40.35;20.42;;;;;;;6.00;71.55;100080.72;3131857;28;20530;-67
2023/12/31 03:14:44;;;;;;;39.85;21.27;;;;;;;6.01;71.51;100082.44;3132098;28;20055;-67
2023/12/31 03:16:16;;;;;;;41.80;19.85;;;;;;;5.99;71.65;100083.34;3131964;28;20048;-66
2023/12/31 03:17:47;;;;;;;37.63;19.35;;;;;;;5.99;71.48;100076.44;3132254;28;20053;-67
2023/12/31 03:19:19;;;;;;;49.53;22.25;;;;;;;6.01;71.47;100084.19;3132150;28;20049;-67
2023/12/31 03:20:51;;;;;;;48.08;22.08;;;;;;;6.00;71.67;100083.31;3131881;28;20059;-67
2023/12/31 03:22:22;;;;;;;50.13;21.77;;;;;;;5.99;71.50;100081.63;3132225;28;20051;-67
2023/12/31 03:23:53;;;;;;;46.90;20.23;;;;;;;6.01;71.49;100085.03;3132514;28;20052;-67
2023/12/31 03:25:25;;;;;;;40.17;20.40;;;;;;;5.97;71.43;100078.19;3132003;28;20510;-67
2023/12/31 03:26:57;;;;;;;39.78;19.77;;;;;;;5.99;71.57;100080.78;3131979;28;20049;-67
2023/12/31 03:28:29;;;;;;;79.18;32.90;;;;;;;6.01;71.51;100086.78;3131867;28;20047;-67
2023/12/31 03:30:00;;;;;;;70.15;29.67;;;;;;;5.98;71.53;100085.09;3131941;28;20559;-65
2023/12/31 03:31:31;;;;;;;59.13;25.33;;;;;;;5.99;71.57;100085.94;3132087;28;20054;-67
2023/12/31 03:33:03;;;;;;;47.58;22.45;;;;;;;5.99;71.47;100080.78;3132027;28;20053;-67
2023/12/31 03:34:35;;;;;;;50.90;23.15;;;;;;;6.01;71.62;100085.03;3131792;28;20049;-67
2023/12/31 03:36:07;;;;;;;39.90;21.20;;;;;;;6.02;71.55;100080.69;3136548;28;20427;-67
2023/12/31 03:37:38;;;;;;;41.92;20.45;;;;;;;6.05;71.46;100090.97;3131813;28;20049;-67
2023/12/31 03:39:10;;;;;;;40.28;19.65;;;;;;;6.05;71.43;100090.97;3131848;28;20068;-67
2023/12/31 03:40:42;;;;;;;47.80;21.45;;;;;;;6.06;71.33;100098.72;3131865;28;20049;-66
2023/12/31 03:42:14;;;;;;;50.33;21.73;;;;;;;6.08;71.39;100096.06;3131757;28;20044;-67
2023/12/31 03:43:46;;;;;;;45.42;20.85;;;;;;;6.08;71.25;100096.06;3131546;28;20049;-67
2023/12/31 03:45:17;;;;;;;40.15;19.67;;;;;;;6.07;71.36;100087.47;3131779;28;20430;-67
2023/12/31 03:46:49;;;;;;;47.15;20.88;;;;;;;6.08;71.39;100096.91;3130862;28;20052;-67
2023/12/31 03:48:19;;;;;;;38.35;20.05;;;;;;;6.09;71.46;100093.47;3126885;28;20545;-67
2023/12/31 03:49:51;;;;;;;38.75;20.05;;;;;;;6.10;71.24;100094.31;3126850;28;20056;-67
2023/12/31 03:51:22;;;;;;;44.85;22.48;;;;;;;6.10;71.36;100091.72;3126534;28;20536;-67
2023/12/31 03:52:54;;;;;;;45.85;20.83;;;;;;;6.10;71.35;100092.56;3126618;28;20052;-66
2023/12/31 03:54:25;;;;;;;44.30;21.83;;;;;;;6.07;71.36;100084.88;3126650;28;20053;-67
2023/12/31 03:55:57;;;;;;;41.17;21.10;;;;;;;6.02;71.42;100089.31;3126826;28;20110;-66
2023/12/31 03:57:29;;;;;;;41.28;21.60;;;;;;;5.96;71.48;100081.69;3128952;28;20079;-67
2023/12/31 03:59:01;;;;;;;49.13;20.25;;;;;;;6.02;71.45;100091.03;3124795;28;20060;-67
2023/12/31 04:00:32;;;;;;;41.63;20.95;;;;;;;6.03;71.61;100096.16;3129155;28;20057;-66
2023/12/31 04:02:04;;;;;;;42.85;20.08;;;;;;;6.03;71.43;100098.75;3128646;28;20616;-67
2023/12/31 04:03:35;;;;;;;38.13;19.05;;;;;;;6.03;71.51;100098.75;3129247;28;20276;-67
2023/12/31 04:05:07;;;;;;;45.70;20.30;;;;;;;6.04;71.51;100097.03;3128973;28;20266;-66
2023/12/31 04:06:38;;;;;;;39.08;20.25;;;;;;;6.02;71.56;100091.88;3128842;28;20803;-67
2023/12/31 04:08:10;;;;;;;44.40;20.00;;;;;;;6.03;71.56;100098.75;3128847;28;20118;-67
2023/12/31 04:09:41;;;;;;;57.78;24.80;;;;;;;6.04;71.57;100090.13;3129086;28;20057;-67
2023/12/31 04:11:13;;;;;;;50.25;24.02;;;;;;;6.06;71.61;100093.53;3129259;28;20593;-67
2023/12/31 04:12:45;;;;;;;47.40;23.20;;;;;;;6.08;71.27;100094.34;3128825;28;20059;-67
2023/12/31 04:14:17;;;;;;;44.67;21.98;;;;;;;6.08;71.54;100089.16;3128884;28;20155;-67
2023/12/31 04:15:48;;;;;;;47.00;22.00;;;;;;;6.09;71.45;100096.06;3129016;28;20048;-67
2023/12/31 04:17:20;;;;;;;44.10;21.27;;;;;;;6.09;71.52;100092.59;3129026;28;20084;-67
2023/12/31 04:18:51;;;;;;;38.00;20.08;;;;;;;6.09;71.53;100097.78;3128915;28;20057;-67
2023/12/31 04:20:23;;;;;;;40.55;20.38;;;;;;;6.08;71.52;100096.91;3128889;28;20181;-66
2023/12/31 04:21:53;;;;;;;44.75;21.45;;;;;;;6.09;71.54;100098.66;3128981;28;20247;-67
2023/12/31 04:23:25;;;;;;;45.17;21.23;;;;;;;6.09;71.54;100097.78;3128730;28;20848;-66
2023/12/31 04:24:56;;;;;;;45.45;21.95;;;;;;;6.08;71.63;100098.66;3128756;28;20469;-67
2023/12/31 04:26:28;;;;;;;48.15;22.17;;;;;;;6.05;71.49;100097.00;3128758;28;20114;-66
2023/12/31 04:28:00;;;;;;;45.30;22.23;;;;;;;6.05;71.68;100094.41;3128589;28;20445;-67
2023/12/31 04:29:32;;;;;;;45.13;22.10;;;;;;;6.03;71.62;100098.75;3128653;28;20053;-67
2023/12/31 04:31:03;;;;;;;48.47;22.17;;;;;;;6.01;71.66;100103.13;3128446;28;20080;-67
2023/12/31 04:32:35;;;;;;;47.35;22.60;;;;;;;5.98;71.74;100103.19;3128938;28;20072;-67
2023/12/31 04:34:06;;;;;;;45.92;21.77;;;;;;;5.96;71.79;100102.38;3128720;28;20431;-67
2023/12/31 04:35:40;;;;;;;43.55;20.90;;;;;;;5.96;71.82;100114.44;3133695;28;20068;-67
2023/12/31 04:37:11;;;;;;;43.25;21.25;;;;;;;5.94;71.87;100117.03;3128771;28;20052;-67
2023/12/31 04:38:43;;;;;;;41.30;20.60;;;;;;;5.95;71.86;100116.19;3128936;28;20131;-67
2023/12/31 04:40:15;;;;;;;46.38;21.02;;;;;;;5.98;72.13;100123.03;3128492;28;20072;-66
2023/12/31 04:41:46;;;;;;;40.67;20.08;;;;;;;5.98;71.88;100123.88;3128602;28;20549;-66
2023/12/31 04:43:19;;;;;;;42.45;20.92;;;;;;;6.00;71.78;100129.84;3128368;28;20057;-66
2023/12/31 04:44:50;;;;;;;42.75;20.35;;;;;;;5.99;71.85;100129.88;3128713;28;20061;-66
2023/12/31 04:46:22;;;;;;;39.28;19.40;;;;;;;5.97;71.60;100129.91;3128790;28;20666;-67
2023/12/31 04:47:53;;;;;;;39.72;20.67;;;;;;;5.95;71.74;100126.53;3128665;28;20322;-66
2023/12/31 04:49:25;;;;;;;46.80;21.58;;;;;;;5.90;71.81;100120.56;3128337;28;20056;-66
2023/12/31 04:50:56;;;;;;;39.67;20.52;;;;;;;5.88;71.91;100123.16;3128617;28;20052;-67
2023/12/31 04:52:28;;;;;;;46.30;21.42;;;;;;;5.53;71.93;100079.09;3128559;28;20149;-67
2023/12/31 04:53:59;;;;;;;43.22;20.40;;;;;;;5.87;72.02;100133.53;3128594;28;20044;-66
2023/12/31 04:55:31;;;;;;;38.53;20.05;;;;;;;5.88;72.14;100127.47;3128727;28;20114;-66
2023/12/31 04:57:01;;;;;;;41.90;20.30;;;;;;;5.16;71.91;100004.97;3128367;28;20102;-66
2023/12/31 04:58:35;;;;;;;40.70;19.48;;;;;;;5.93;71.91;100130.88;3128024;28;20559;-66
2023/12/31 05:00:06;;;;;;;45.08;19.92;;;;;;;5.94;71.93;100132.56;3128199;28;20568;-66
2023/12/31 05:01:38;;;;;;;38.35;19.77;;;;;;;5.95;71.83;100131.69;3128224;28;20059;-65
2023/12/31 05:03:09;;;;;;;39.20;20.45;;;;;;;5.97;71.70;100124.72;3128414;28;20064;-66
2023/12/31 05:04:41;;;;;;;40.58;20.38;;;;;;;5.97;71.81;100123.88;3128346;28;20064;-66
2023/12/31 05:06:12;;;;;;;42.75;21.17;;;;;;;5.51;71.77;100048.16;3128194;28;20080;-66
2023/12/31 05:07:44;;;;;;;42.17;20.65;;;;;;;5.95;71.68;100121.34;3127190;28;20075;-66
2023/12/31 05:09:15;;;;;;;41.50;20.95;;;;;;;5.96;71.80;100123.03;3128625;28;20057;-66
2023/12/31 05:10:47;;;;;;;41.70;20.80;;;;;;;5.97;71.76;100122.16;3128123;28;20088;-66
2023/12/31 05:12:17;;;;;;;42.92;20.75;;;;;;;5.96;71.75;100125.63;3128218;28;20394;-66
2023/12/31 05:13:51;;;;;;;42.47;20.83;;;;;;;5.99;71.78;100128.16;3126502;28;20053;-66
2023/12/31 05:15:21;;;;;;;45.15;20.83;;;;;;;6.00;71.79;100127.25;3128355;28;20053;-66
2023/12/31 05:16:53;;;;;;;47.80;21.63;;;;;;;6.01;71.76;100125.53;3128138;28;20045;-66
2023/12/31 05:18:24;;;;;;;43.20;21.73;;;;;;;6.00;71.60;100129.84;3128239;28;20305;-66
2023/12/31 05:19:56;;;;;;;43.38;21.80;;;;;;;6.00;71.70;100127.25;3128183;28;20053;-67
2023/12/31 05:21:27;;;;;;;38.88;19.98;;;;;;;6.04;71.62;100130.66;3127789;28;20057;-66
2023/12/31 05:22:59;;;;;;;48.35;21.92;;;;;;;6.05;71.77;100124.59;3128178;28;20110;-67
2023/12/31 05:24:30;;;;;;;40.58;21.08;;;;;;;6.06;71.75;100132.31;3128316;28;20049;-66
2023/12/31 05:26:02;;;;;;;44.03;21.30;;;;;;;6.05;71.74;100129.75;3127976;28;20117;-68
2023/12/31 05:27:33;;;;;;;47.55;22.42;;;;;;;6.05;71.72;100133.19;3128109;28;20080;-66
2023/12/31 05:29:06;;;;;;;47.13;22.35;;;;;;;6.09;71.76;100129.69;3127883;28;20147;-66
2023/12/31 05:30:41;;;;;;;45.50;21.58;;;;;;;6.07;71.67;100126.25;3128066;28;20542;-66
2023/12/31 05:32:12;;;;;;;48.65;22.10;;;;;;;6.09;71.76;100134.84;3128040;28;20151;-67
2023/12/31 05:33:44;;;;;;;44.10;20.77;;;;;;;6.09;71.65;100123.63;3128119;28;20064;-67
2023/12/31 05:35:16;;;;;;;42.28;20.40;;;;;;;6.08;71.63;100121.94;3132730;28;20521;-67
2023/12/31 05:36:46;;;;;;;39.88;19.83;;;;;;;6.06;71.58;100126.28;3115898;28;20053;-67
2023/12/31 05:38:18;;;;;;;40.05;19.35;;;;;;;6.01;71.70;100121.22;3127570;28;20056;-67
2023/12/31 05:39:49;;;;;;;42.05;21.10;;;;;;;6.00;71.72;100127.25;3128092;28;20142;-67
2023/12/31 05:41:21;;;;;;;41.67;21.50;;;;;;;6.01;71.82;100123.81;3128250;28;20053;-67
2023/12/31 05:42:53;;;;;;;44.55;21.30;;;;;;;6.03;71.85;100124.59;3127568;28;20049;-67
2023/12/31 05:44:25;;;;;;;40.95;21.35;;;;;;;6.04;71.73;100125.47;3128019;28;20554;-67
2023/12/31 05:45:57;;;;;;;41.28;21.35;;;;;;;6.04;71.79;100121.16;3127937;28;20049;-67
2023/12/31 05:47:28;;;;;;;45.42;21.55;;;;;;;6.05;71.91;100130.59;3127824;28;20053;-67
2023/12/31 05:49:00;;;;;;;44.50;20.35;;;;;;;6.06;71.65;100132.31;3127782;28;20407;-67
2023/12/31 05:50:31;;;;;;;40.83;20.80;;;;;;;6.07;71.80;100138.34;3128025;28;20053;-67
2023/12/31 05:52:04;;;;;;;40.60;19.63;;;;;;;6.08;71.81;100138.28;3127812;28;20414;-67
2023/12/31 05:53:35;;;;;;;40.85;19.70;;;;;;;6.07;71.70;100136.59;3127777;28;20155;-67
2023/12/31 05:55:08;;;;;;;43.55;19.90;;;;;;;6.07;71.72;100128.84;3127752;28;20095;-66
2023/12/31 05:56:39;;;;;;;44.80;21.38;;;;;;;6.08;71.71;100138.28;3127922;28;20058;-67
2023/12/31 05:58:10;;;;;;;44.58;21.98;;;;;;;6.10;71.68;100133.09;3127605;28;20049;-67
2023/12/31 05:59:43;;;;;;;39.33;19.27;;;;;;;6.11;71.66;100133.06;3127665;28;20612;-67
2023/12/31 06:01:15;;;;;;;;;;;;;;;5.98;71.86;100131.63;3127963;28;20453;-67
2023/12/31 06:02:47;;;;;;;42.65;20.13;;;;;;;6.02;71.86;100124.66;3127882;28;19932;-67
2023/12/31 06:04:17;;;;;;;39.28;19.73;;;;;;;6.08;71.74;100132.28;3127745;28;20049;-67
2023/12/31 06:05:49;;;;;;;41.20;22.40;;;;;;;6.10;71.79;100133.09;3127807;28;20438;-67
2023/12/31 06:07:21;;;;;;;48.28;22.65;;;;;;;6.11;71.63;100127.03;3127745;28;20097;-67
2023/12/31 06:08:52;;;;;;;44.50;21.60;;;;;;;6.11;71.85;100122.72;3127750;28;20410;-67
2023/12/31 06:10:24;;;;;;;39.67;20.55;;;;;;;6.13;71.75;100123.53;3127851;28;20048;-67
2023/12/31 06:11:55;;;;;;;48.22;22.08;;;;;;;6.14;71.72;100117.47;3127860;28;20498;-67
2023/12/31 06:13:27;;;;;;;44.78;21.38;;;;;;;6.17;71.66;100126.06;3127753;28;20135;-67
2023/12/31 06:14:59;;;;;;;46.55;21.75;;;;;;;6.19;71.63;100124.28;3127708;28;20048;-67
2023/12/31 06:16:31;;;;;;;43.77;20.17;;;;;;;6.15;71.65;100129.53;3127522;28;20889;-67
2023/12/31 06:18:02;;;;;;;40.40;20.48;;;;;;;6.15;71.76;100132.13;3127396;28;20125;-67
2023/12/31 06:19:34;;;;;;;43.00;21.55;;;;;;;6.18;71.91;100132.91;3127105;28;20084;-66
2023/12/31 06:21:05;;;;;;;45.78;22.15;;;;;;;6.18;71.78;100127.75;3127496;28;20052;-67
2023/12/31 06:22:37;;;;;;;43.90;21.92;;;;;;;6.20;71.73;100133.75;3127500;28;20476;-67
2023/12/31 06:24:08;;;;;;;50.40;22.23;;;;;;;6.21;71.72;100128.56;3127364;28;20114;-67
2023/12/31 06:25:40;;;;;;;43.80;21.40;;;;;;;6.23;71.66;100137.09;3127290;28;20049;-67
2023/12/31 06:27:10;;;;;;;43.78;22.10;;;;;;;6.25;71.67;100139.69;3127432;28;20053;-67
2023/12/31 06:28:42;;;;;;;47.33;21.67;;;;;;;6.25;71.63;100137.94;3127367;28;20056;-66
2023/12/31 06:30:15;;;;;;;47.35;23.23;;;;;;;6.27;71.67;100141.34;3127571;28;20068;-66
2023/12/31 06:31:47;;;;;;;58.05;26.92;;;;;;;6.25;71.69;100137.09;3127466;28;20057;-67
2023/12/31 06:33:18;;;;;;;53.55;27.73;;;;;;;6.25;71.77;100142.25;3127452;28;20201;-66
2023/12/31 06:34:50;;;;;;;59.38;27.75;;;;;;;6.24;71.80;100144.00;3128276;28;20577;-66
2023/12/31 06:36:21;;;;;;;60.20;28.27;;;;;;;6.25;71.77;100145.69;3130042;28;20163;-66
2023/12/31 06:37:52;;;;;;;60.25;28.65;;;;;;;6.25;71.83;100145.69;3127421;28;20155;-66
2023/12/31 06:39:23;;;;;;;56.50;27.33;;;;;;;6.28;71.88;100152.53;3127194;28;20056;-66
2023/12/31 06:40:55;;;;;;;51.85;26.02;;;;;;;6.30;71.86;100159.38;3127434;28;21439;-68
2023/12/31 06:42:26;;;;;;;51.55;24.88;;;;;;;6.34;71.69;100160.16;3127133;28;20056;-66
2023/12/31 06:43:58;;;;;;;50.10;24.60;;;;;;;6.36;71.70;100169.59;3127026;28;20052;-66
2023/12/31 06:45:30;;;;;;;48.53;25.13;;;;;;;6.38;71.67;100160.03;3127385;28;20056;-66
2023/12/31 06:47:02;;;;;;;54.33;23.75;;;;;;;6.40;71.78;100160.03;3127307;28;20056;-66
2023/12/31 06:48:33;;;;;;;53.20;24.58;;;;;;;6.43;71.51;100164.28;3127201;28;20091;-66
2023/12/31 06:50:05;;;;;;;54.42;24.63;;;;;;;6.45;71.45;100162.50;3127044;28;20542;-66
2023/12/31 06:51:36;;;;;;;50.33;26.60;;;;;;;6.45;71.64;100158.19;3126983;28;20157;-66
2023/12/31 06:53:08;;;;;;;49.05;24.63;;;;;;;6.49;71.56;100170.16;3127099;28;20725;-66
2023/12/31 06:54:39;;;;;;;49.65;24.65;;;;;;;6.51;71.37;100173.56;3115066;28;20061;-66
2023/12/31 06:56:12;;;;;;;48.50;24.60;;;;;;;6.53;71.57;100176.13;3126703;28;20076;-66
2023/12/31 06:57:42;;;;;;;53.53;25.13;;;;;;;6.52;71.43;100170.09;3127128;28;20124;-66
2023/12/31 06:59:14;;;;;;;46.30;24.63;;;;;;;6.58;71.24;100176.88;3126815;28;20049;-67
2023/12/31 07:00:47;;;;;;;48.53;24.27;;;;;;;6.60;71.45;100178.53;3126965;28;20063;-66